sensor_id;sensor_type;location;lat;lon;timestamp;temperature;humidity
9730;DHT22;4904;49.152;11.004;2023-06-04T00:00:55;14.10;99.90
9730;DHT22;4904;49.152;11.004;2023-06-04T00:03:24;14.10;99.90
9730;DHT22;4904;49.152;11.004;2023-06-04T00:05:51;14.10;99.90
9730;DHT22;4904;49.152;11.004;2023-06-04T00:08:18;14.10;99.90
9730;DHT22;4904;49.152;11.004;2023-06-04T00:10:45;14.00;99.90
9730;DHT22;4904;49.152;11.004;2023-06-04T00:13:13;13.70;99.90
9730;DHT22;4904;49.152;11.004;2023-06-04T00:15:40;13.70;99.90
9730;DHT22;4904;49.152;11.004;2023-06-04T00:18:08;13.60;99.90
9730;DHT22;4904;49.152;11.004;2023-06-04T00:20:37;13.70;99.90
9730;DHT22;4904;49.152;11.004;2023-06-04T00:23:04;13.80;99.90
9730;DHT22;4904;49.152;11.004;2023-06-04T00:25:31;13.90;99.90
9730;DHT22;4904;49.152;11.004;2023-06-04T00:27:58;13.90;99.90
9730;DHT22;4904;49.152;11.004;2023-06-04T00:30:25;13.80;99.90
9730;DHT22;4904;49.152;11.004;2023-06-04T00:32:53;13.60;99.90
9730;DHT22;4904;49.152;11.004;2023-06-04T00:35:20;13.50;99.90
9730;DHT22;4904;49.152;11.004;2023-06-04T00:37:48;13.50;99.90
9730;DHT22;4904;49.152;11.004;2023-06-04T00:40:16;13.40;99.90
9730;DHT22;4904;49.152;11.004;2023-06-04T00:42:44;13.30;99.90
9730;DHT22;4904;49.152;11.004;2023-06-04T00:45:11;13.30;99.90
9730;DHT22;4904;49.152;11.004;2023-06-04T00:47:39;13.10;99.90
9730;DHT22;4904;49.152;11.004;2023-06-04T00:50:07;13.00;99.90
9730;DHT22;4904;49.152;11.004;2023-06-04T00:52:35;12.90;99.90
9730;DHT22;4904;49.152;11.004;2023-06-04T00:55:04;12.90;99.90
9730;DHT22;4904;49.152;11.004;2023-06-04T00:57:31;12.90;99.90
9730;DHT22;4904;49.152;11.004;2023-06-04T00:59:58;13.00;99.90
9730;DHT22;4904;49.152;11.004;2023-06-04T01:02:26;12.90;99.90
9730;DHT22;4904;49.152;11.004;2023-06-04T01:05:01;12.80;99.90
9730;DHT22;4904;49.152;11.004;2023-06-04T01:07:30;12.70;99.90
9730;DHT22;4904;49.152;11.004;2023-06-04T01:09:57;12.70;99.90
9730;DHT22;4904;49.152;11.004;2023-06-04T01:12:27;12.70;99.90
9730;DHT22;4904;49.152;11.004;2023-06-04T01:14:55;12.60;99.90
9730;DHT22;4904;49.152;11.004;2023-06-04T01:17:26;12.50;99.90
9730;DHT22;4904;49.152;11.004;2023-06-04T01:20:16;12.60;99.90
9730;DHT22;4904;49.152;11.004;2023-06-04T01:22:54;12.60;99.90
9730;DHT22;4904;49.152;11.004;2023-06-04T01:25:29;12.70;99.90
9730;DHT22;4904;49.152;11.004;2023-06-04T01:28:01;12.80;99.90
9730;DHT22;4904;49.152;11.004;2023-06-04T01:30:31;12.50;99.90
9730;DHT22;4904;49.152;11.004;2023-06-04T01:32:59;12.50;99.90
9730;DHT22;4904;49.152;11.004;2023-06-04T01:35:27;12.50;99.90
9730;DHT22;4904;49.152;11.004;2023-06-04T01:37:54;12.40;99.90
9730;DHT22;4904;49.152;11.004;2023-06-04T01:40:23;12.30;99.90
9730;DHT22;4904;49.152;11.004;2023-06-04T01:42:51;12.20;99.90
9730;DHT22;4904;49.152;11.004;2023-06-04T01:45:20;12.20;99.90
9730;DHT22;4904;49.152;11.004;2023-06-04T01:47:48;12.20;99.90
9730;DHT22;4904;49.152;11.004;2023-06-04T01:50:15;12.40;99.90
9730;DHT22;4904;49.152;11.004;2023-06-04T01:52:42;12.40;99.90
9730;DHT22;4904;49.152;11.004;2023-06-04T01:55:11;12.50;99.90
9730;DHT22;4904;49.152;11.004;2023-06-04T01:57:40;12.50;99.90
9730;DHT22;4904;49.152;11.004;2023-06-04T02:00:08;12.50;99.90
9730;DHT22;4904;49.152;11.004;2023-06-04T02:02:37;12.50;99.90
9730;DHT22;4904;49.152;11.004;2023-06-04T02:05:07;12.50;99.90
9730;DHT22;4904;49.152;11.004;2023-06-04T02:07:34;12.40;99.90
9730;DHT22;4904;49.152;11.004;2023-06-04T02:10:04;12.50;99.90
9730;DHT22;4904;49.152;11.004;2023-06-04T02:12:31;12.40;99.90
9730;DHT22;4904;49.152;11.004;2023-06-04T02:14:58;12.40;99.90
9730;DHT22;4904;49.152;11.004;2023-06-04T02:17:25;12.20;99.90
9730;DHT22;4904;49.152;11.004;2023-06-04T02:19:59;12.20;99.90
9730;DHT22;4904;49.152;11.004;2023-06-04T02:22:29;12.00;99.90
9730;DHT22;4904;49.152;11.004;2023-06-04T02:24:56;11.80;99.90
9730;DHT22;4904;49.152;11.004;2023-06-04T02:27:23;11.70;99.90
9730;DHT22;4904;49.152;11.004;2023-06-04T02:29:50;11.80;99.90
9730;DHT22;4904;49.152;11.004;2023-06-04T02:32:17;11.80;99.90
9730;DHT22;4904;49.152;11.004;2023-06-04T02:34:45;11.80;99.90
9730;DHT22;4904;49.152;11.004;2023-06-04T02:37:13;11.90;99.90
9730;DHT22;4904;49.152;11.004;2023-06-04T02:39:40;11.90;99.90
9730;DHT22;4904;49.152;11.004;2023-06-04T02:42:07;11.90;99.90
9730;DHT22;4904;49.152;11.004;2023-06-04T02:44:34;11.70;99.90
9730;DHT22;4904;49.152;11.004;2023-06-04T02:47:01;11.50;99.90
9730;DHT22;4904;49.152;11.004;2023-06-04T02:49:29;11.20;99.90
9730;DHT22;4904;49.152;11.004;2023-06-04T02:51:56;11.10;99.90
9730;DHT22;4904;49.152;11.004;2023-06-04T02:54:24;11.00;99.90
9730;DHT22;4904;49.152;11.004;2023-06-04T02:56:51;11.10;99.90
9730;DHT22;4904;49.152;11.004;2023-06-04T02:59:18;11.10;99.90
9730;DHT22;4904;49.152;11.004;2023-06-04T03:01:45;11.20;99.90
9730;DHT22;4904;49.152;11.004;2023-06-04T03:04:12;11.20;99.90
9730;DHT22;4904;49.152;11.004;2023-06-04T03:06:41;11.20;99.90
9730;DHT22;4904;49.152;11.004;2023-06-04T03:09:10;11.20;99.90
9730;DHT22;4904;49.152;11.004;2023-06-04T03:11:39;11.10;99.90
9730;DHT22;4904;49.152;11.004;2023-06-04T03:14:06;11.10;99.90
9730;DHT22;4904;49.152;11.004;2023-06-04T03:16:33;11.10;99.90
9730;DHT22;4904;49.152;11.004;2023-06-04T03:19:00;11.20;99.90
9730;DHT22;4904;49.152;11.004;2023-06-04T03:21:27;11.10;99.90
9730;DHT22;4904;49.152;11.004;2023-06-04T03:23:54;11.00;99.90
9730;DHT22;4904;49.152;11.004;2023-06-04T03:26:21;10.80;99.90
9730;DHT22;4904;49.152;11.004;2023-06-04T03:28:49;10.70;99.90
9730;DHT22;4904;49.152;11.004;2023-06-04T03:31:16;10.60;99.90
9730;DHT22;4904;49.152;11.004;2023-06-04T03:33:44;10.50;99.90
9730;DHT22;4904;49.152;11.004;2023-06-04T03:36:11;10.60;99.90
9730;DHT22;4904;49.152;11.004;2023-06-04T03:38:38;10.50;99.90
9730;DHT22;4904;49.152;11.004;2023-06-04T03:41:05;10.40;99.90
9730;DHT22;4904;49.152;11.004;2023-06-04T03:43:32;10.40;99.90
9730;DHT22;4904;49.152;11.004;2023-06-04T03:46:01;10.40;99.90
9730;DHT22;4904;49.152;11.004;2023-06-04T03:48:28;10.20;99.90
9730;DHT22;4904;49.152;11.004;2023-06-04T03:50:55;10.20;99.90
9730;DHT22;4904;49.152;11.004;2023-06-04T03:53:22;10.10;99.90
9730;DHT22;4904;49.152;11.004;2023-06-04T03:55:49;10.20;99.90
9730;DHT22;4904;49.152;11.004;2023-06-04T03:58:16;10.30;99.90
9730;DHT22;4904;49.152;11.004;2023-06-04T04:00:43;10.40;99.90
9730;DHT22;4904;49.152;11.004;2023-06-04T04:03:14;10.50;99.90
9730;DHT22;4904;49.152;11.004;2023-06-04T04:05:41;10.40;99.90
9730;DHT22;4904;49.152;11.004;2023-06-04T04:08:08;10.40;99.90
9730;DHT22;4904;49.152;11.004;2023-06-04T04:10:35;10.30;99.90
9730;DHT22;4904;49.152;11.004;2023-06-04T04:13:02;10.40;99.90
9730;DHT22;4904;49.152;11.004;2023-06-04T04:15:29;10.40;99.90
9730;DHT22;4904;49.152;11.004;2023-06-04T04:17:56;10.30;99.90
9730;DHT22;4904;49.152;11.004;2023-06-04T04:20:25;10.40;99.90
9730;DHT22;4904;49.152;11.004;2023-06-04T04:22:52;10.40;99.90
9730;DHT22;4904;49.152;11.004;2023-06-04T04:25:20;10.40;99.90
9730;DHT22;4904;49.152;11.004;2023-06-04T04:27:46;10.50;99.90
9730;DHT22;4904;49.152;11.004;2023-06-04T04:30:14;10.60;99.90
9730;DHT22;4904;49.152;11.004;2023-06-04T04:32:43;10.70;99.90
9730;DHT22;4904;49.152;11.004;2023-06-04T04:35:14;10.70;99.90
9730;DHT22;4904;49.152;11.004;2023-06-04T04:37:45;10.70;99.90
9730;DHT22;4904;49.152;11.004;2023-06-04T04:40:12;10.70;99.90
9730;DHT22;4904;49.152;11.004;2023-06-04T04:42:40;10.60;99.90
9730;DHT22;4904;49.152;11.004;2023-06-04T04:45:08;10.60;99.90
9730;DHT22;4904;49.152;11.004;2023-06-04T04:47:36;10.70;99.90
9730;DHT22;4904;49.152;11.004;2023-06-04T04:50:04;10.70;99.90
9730;DHT22;4904;49.152;11.004;2023-06-04T04:52:32;10.80;99.90
9730;DHT22;4904;49.152;11.004;2023-06-04T04:55:00;10.90;99.90
9730;DHT22;4904;49.152;11.004;2023-06-04T04:57:27;10.90;99.90
9730;DHT22;4904;49.152;11.004;2023-06-04T04:59:54;11.00;99.90
9730;DHT22;4904;49.152;11.004;2023-06-04T05:02:21;10.90;99.90
9730;DHT22;4904;49.152;11.004;2023-06-04T05:04:48;11.30;99.90
9730;DHT22;4904;49.152;11.004;2023-06-04T05:07:15;11.00;99.90
9730;DHT22;4904;49.152;11.004;2023-06-04T05:09:42;11.10;99.90
9730;DHT22;4904;49.152;11.004;2023-06-04T05:12:10;11.20;99.90
9730;DHT22;4904;49.152;11.004;2023-06-04T05:14:37;11.30;99.90
9730;DHT22;4904;49.152;11.004;2023-06-04T05:17:07;11.40;99.90
9730;DHT22;4904;49.152;11.004;2023-06-04T05:19:36;11.50;99.90
9730;DHT22;4904;49.152;11.004;2023-06-04T05:22:04;11.60;99.90
9730;DHT22;4904;49.152;11.004;2023-06-04T05:24:31;11.70;99.90
9730;DHT22;4904;49.152;11.004;2023-06-04T05:26:58;11.80;99.90
9730;DHT22;4904;49.152;11.004;2023-06-04T05:29:27;11.90;99.90
9730;DHT22;4904;49.152;11.004;2023-06-04T05:31:54;12.00;99.90
9730;DHT22;4904;49.152;11.004;2023-06-04T05:34:22;12.10;99.90
9730;DHT22;4904;49.152;11.004;2023-06-04T05:36:48;12.20;99.90
9730;DHT22;4904;49.152;11.004;2023-06-04T05:39:17;12.30;99.90
9730;DHT22;4904;49.152;11.004;2023-06-04T05:41:44;12.40;99.90
9730;DHT22;4904;49.152;11.004;2023-06-04T05:44:11;12.50;99.90
9730;DHT22;4904;49.152;11.004;2023-06-04T05:46:41;12.60;99.90
9730;DHT22;4904;49.152;11.004;2023-06-04T05:49:08;12.60;99.90
9730;DHT22;4904;49.152;11.004;2023-06-04T05:51:35;12.80;99.90
9730;DHT22;4904;49.152;11.004;2023-06-04T05:54:02;12.90;99.90
9730;DHT22;4904;49.152;11.004;2023-06-04T05:56:29;13.00;99.90
9730;DHT22;4904;49.152;11.004;2023-06-04T05:58:56;13.10;99.90
9730;DHT22;4904;49.152;11.004;2023-06-04T06:01:24;13.20;99.90
9730;DHT22;4904;49.152;11.004;2023-06-04T06:03:52;13.30;99.90
9730;DHT22;4904;49.152;11.004;2023-06-04T06:06:19;13.30;99.90
9730;DHT22;4904;49.152;11.004;2023-06-04T06:08:46;13.50;99.90
9730;DHT22;4904;49.152;11.004;2023-06-04T06:11:13;13.50;99.90
9730;DHT22;4904;49.152;11.004;2023-06-04T06:13:40;13.70;99.90
9730;DHT22;4904;49.152;11.004;2023-06-04T06:16:07;13.80;99.90
9730;DHT22;4904;49.152;11.004;2023-06-04T06:18:34;13.80;99.90
9730;DHT22;4904;49.152;11.004;2023-06-04T06:21:03;13.90;99.90
9730;DHT22;4904;49.152;11.004;2023-06-04T06:23:30;14.00;99.90
9730;DHT22;4904;49.152;11.004;2023-06-04T06:25:57;14.20;99.90
9730;DHT22;4904;49.152;11.004;2023-06-04T06:28:26;14.20;99.90
9730;DHT22;4904;49.152;11.004;2023-06-04T06:30:53;14.40;99.90
9730;DHT22;4904;49.152;11.004;2023-06-04T06:33:20;14.50;99.90
9730;DHT22;4904;49.152;11.004;2023-06-04T06:35:49;14.60;99.90
9730;DHT22;4904;49.152;11.004;2023-06-04T06:38:17;14.70;99.90
9730;DHT22;4904;49.152;11.004;2023-06-04T06:40:44;14.70;99.90
9730;DHT22;4904;49.152;11.004;2023-06-04T06:43:11;14.80;99.90
9730;DHT22;4904;49.152;11.004;2023-06-04T06:45:38;15.00;99.90
9730;DHT22;4904;49.152;11.004;2023-06-04T06:48:06;15.00;99.90
9730;DHT22;4904;49.152;11.004;2023-06-04T06:50:33;15.10;99.90
9730;DHT22;4904;49.152;11.004;2023-06-04T06:53:01;15.20;99.90
9730;DHT22;4904;49.152;11.004;2023-06-04T06:55:30;15.30;99.90
9730;DHT22;4904;49.152;11.004;2023-06-04T06:57:58;15.40;99.90
9730;DHT22;4904;49.152;11.004;2023-06-04T07:00:28;15.50;99.90
9730;DHT22;4904;49.152;11.004;2023-06-04T07:02:56;15.60;99.90
9730;DHT22;4904;49.152;11.004;2023-06-04T07:05:23;15.80;99.90
9730;DHT22;4904;49.152;11.004;2023-06-04T07:07:52;15.90;99.90
9730;DHT22;4904;49.152;11.004;2023-06-04T07:10:19;16.00;99.90
9730;DHT22;4904;49.152;11.004;2023-06-04T07:12:48;16.10;99.90
9730;DHT22;4904;49.152;11.004;2023-06-04T07:15:15;16.20;99.90
9730;DHT22;4904;49.152;11.004;2023-06-04T07:17:42;16.30;99.90
9730;DHT22;4904;49.152;11.004;2023-06-04T07:20:09;16.20;99.90
9730;DHT22;4904;49.152;11.004;2023-06-04T07:22:37;16.50;99.90
9730;DHT22;4904;49.152;11.004;2023-06-04T07:25:06;16.50;99.90
9730;DHT22;4904;49.152;11.004;2023-06-04T07:27:33;16.50;99.90
9730;DHT22;4904;49.152;11.004;2023-06-04T07:30:02;16.60;99.90
9730;DHT22;4904;49.152;11.004;2023-06-04T07:32:29;16.60;99.90
9730;DHT22;4904;49.152;11.004;2023-06-04T07:34:56;16.80;99.90
9730;DHT22;4904;49.152;11.004;2023-06-04T07:37:23;16.90;99.90
9730;DHT22;4904;49.152;11.004;2023-06-04T07:39:51;16.90;99.90
9730;DHT22;4904;49.152;11.004;2023-06-04T07:42:19;17.10;99.90
9730;DHT22;4904;49.152;11.004;2023-06-04T07:44:46;17.20;99.90
9730;DHT22;4904;49.152;11.004;2023-06-04T07:47:15;17.30;99.90
9730;DHT22;4904;49.152;11.004;2023-06-04T07:49:42;17.40;99.90
9730;DHT22;4904;49.152;11.004;2023-06-04T07:52:10;17.60;99.90
9730;DHT22;4904;49.152;11.004;2023-06-04T07:54:37;17.70;99.90
9730;DHT22;4904;49.152;11.004;2023-06-04T07:57:06;17.80;99.90
9730;DHT22;4904;49.152;11.004;2023-06-04T07:59:34;17.90;99.90
9730;DHT22;4904;49.152;11.004;2023-06-04T08:02:01;18.00;99.90
9730;DHT22;4904;49.152;11.004;2023-06-04T08:04:29;18.10;99.90
9730;DHT22;4904;49.152;11.004;2023-06-04T08:06:56;18.20;99.90
9730;DHT22;4904;49.152;11.004;2023-06-04T08:09:24;18.40;99.90
9730;DHT22;4904;49.152;11.004;2023-06-04T08:11:50;18.40;99.90
9730;DHT22;4904;49.152;11.004;2023-06-04T08:14:18;18.50;99.90
9730;DHT22;4904;49.152;11.004;2023-06-04T08:16:47;18.60;99.90
9730;DHT22;4904;49.152;11.004;2023-06-04T08:19:14;18.70;99.90
9730;DHT22;4904;49.152;11.004;2023-06-04T08:21:43;18.80;99.90
9730;DHT22;4904;49.152;11.004;2023-06-04T08:24:10;18.90;99.90
9730;DHT22;4904;49.152;11.004;2023-06-04T08:26:37;19.00;99.90
9730;DHT22;4904;49.152;11.004;2023-06-04T08:29:04;19.10;99.90
9730;DHT22;4904;49.152;11.004;2023-06-04T08:31:31;19.10;99.90
9730;DHT22;4904;49.152;11.004;2023-06-04T08:33:58;19.20;99.90
9730;DHT22;4904;49.152;11.004;2023-06-04T08:36:26;19.30;99.90
9730;DHT22;4904;49.152;11.004;2023-06-04T08:38:55;19.40;99.90
9730;DHT22;4904;49.152;11.004;2023-06-04T08:41:27;19.50;99.90
9730;DHT22;4904;49.152;11.004;2023-06-04T08:43:56;19.60;99.90
9730;DHT22;4904;49.152;11.004;2023-06-04T08:46:23;19.60;99.90
9730;DHT22;4904;49.152;11.004;2023-06-04T08:48:50;19.70;99.90
9730;DHT22;4904;49.152;11.004;2023-06-04T08:51:18;19.80;99.90
9730;DHT22;4904;49.152;11.004;2023-06-04T08:53:45;19.90;99.90
9730;DHT22;4904;49.152;11.004;2023-06-04T08:56:17;19.90;99.90
9730;DHT22;4904;49.152;11.004;2023-06-04T08:58:47;20.00;99.90
9730;DHT22;4904;49.152;11.004;2023-06-04T09:01:14;20.10;99.90
9730;DHT22;4904;49.152;11.004;2023-06-04T09:03:41;20.10;99.90
9730;DHT22;4904;49.152;11.004;2023-06-04T09:06:08;20.20;99.90
9730;DHT22;4904;49.152;11.004;2023-06-04T09:08:37;20.30;99.90
9730;DHT22;4904;49.152;11.004;2023-06-04T09:11:11;20.40;99.90
9730;DHT22;4904;49.152;11.004;2023-06-04T09:13:43;20.40;99.90
9730;DHT22;4904;49.152;11.004;2023-06-04T09:16:13;20.40;99.90
9730;DHT22;4904;49.152;11.004;2023-06-04T09:18:40;20.50;99.90
9730;DHT22;4904;49.152;11.004;2023-06-04T09:21:08;20.60;99.90
9730;DHT22;4904;49.152;11.004;2023-06-04T09:23:37;20.70;99.90
9730;DHT22;4904;49.152;11.004;2023-06-04T09:26:08;20.80;99.90
9730;DHT22;4904;49.152;11.004;2023-06-04T09:28:35;20.90;99.90
9730;DHT22;4904;49.152;11.004;2023-06-04T09:31:04;21.00;99.90
9730;DHT22;4904;49.152;11.004;2023-06-04T09:33:42;21.10;99.90
9730;DHT22;4904;49.152;11.004;2023-06-04T09:36:09;21.10;99.90
9730;DHT22;4904;49.152;11.004;2023-06-04T09:38:36;21.00;99.90
9730;DHT22;4904;49.152;11.004;2023-06-04T09:41:04;21.00;99.90
9730;DHT22;4904;49.152;11.004;2023-06-04T09:43:31;21.00;99.90
9730;DHT22;4904;49.152;11.004;2023-06-04T09:46:10;21.10;99.90
9730;DHT22;4904;49.152;11.004;2023-06-04T09:48:37;21.30;99.90
9730;DHT22;4904;49.152;11.004;2023-06-04T09:51:10;21.30;99.90
9730;DHT22;4904;49.152;11.004;2023-06-04T09:53:38;21.30;99.90
9730;DHT22;4904;49.152;11.004;2023-06-04T09:56:08;21.30;99.90
9730;DHT22;4904;49.152;11.004;2023-06-04T09:58:38;21.40;99.90
9730;DHT22;4904;49.152;11.004;2023-06-04T10:01:06;21.40;99.90
9730;DHT22;4904;49.152;11.004;2023-06-04T10:03:35;21.50;99.90
9730;DHT22;4904;49.152;11.004;2023-06-04T10:06:04;21.60;99.90
9730;DHT22;4904;49.152;11.004;2023-06-04T10:08:32;21.70;99.90
9730;DHT22;4904;49.152;11.004;2023-06-04T10:11:01;21.80;99.90
9730;DHT22;4904;49.152;11.004;2023-06-04T10:13:38;21.80;99.90
9730;DHT22;4904;49.152;11.004;2023-06-04T10:16:08;22.00;99.90
9730;DHT22;4904;49.152;11.004;2023-06-04T10:18:39;22.00;99.90
9730;DHT22;4904;49.152;11.004;2023-06-04T10:21:08;22.00;99.90
9730;DHT22;4904;49.152;11.004;2023-06-04T10:23:35;22.00;99.90
9730;DHT22;4904;49.152;11.004;2023-06-04T10:26:03;22.20;99.90
9730;DHT22;4904;49.152;11.004;2023-06-04T10:28:30;22.20;99.90
9730;DHT22;4904;49.152;11.004;2023-06-04T10:30:58;22.30;99.90
9730;DHT22;4904;49.152;11.004;2023-06-04T10:33:26;22.30;99.90
9730;DHT22;4904;49.152;11.004;2023-06-04T10:35:55;22.40;99.90
9730;DHT22;4904;49.152;11.004;2023-06-04T10:38:24;22.40;99.90
9730;DHT22;4904;49.152;11.004;2023-06-04T10:40:51;22.40;99.90
9730;DHT22;4904;49.152;11.004;2023-06-04T10:43:18;22.40;99.90
9730;DHT22;4904;49.152;11.004;2023-06-04T10:45:45;22.40;99.90
9730;DHT22;4904;49.152;11.004;2023-06-04T10:48:13;22.30;99.90
9730;DHT22;4904;49.152;11.004;2023-06-04T10:50:50;22.40;99.90
9730;DHT22;4904;49.152;11.004;2023-06-04T10:53:19;22.40;99.90
9730;DHT22;4904;49.152;11.004;2023-06-04T10:55:48;22.50;99.90
9730;DHT22;4904;49.152;11.004;2023-06-04T10:58:15;22.50;99.90
9730;DHT22;4904;49.152;11.004;2023-06-04T11:00:45;22.70;99.90
9730;DHT22;4904;49.152;11.004;2023-06-04T11:03:14;22.70;99.90
9730;DHT22;4904;49.152;11.004;2023-06-04T11:05:44;22.80;99.90
9730;DHT22;4904;49.152;11.004;2023-06-04T11:08:13;22.80;99.90
9730;DHT22;4904;49.152;11.004;2023-06-04T11:10:44;22.70;99.90
9730;DHT22;4904;49.152;11.004;2023-06-04T11:13:11;22.60;99.90
9730;DHT22;4904;49.152;11.004;2023-06-04T11:15:39;22.60;99.90
9730;DHT22;4904;49.152;11.004;2023-06-04T11:18:07;22.60;99.90
9730;DHT22;4904;49.152;11.004;2023-06-04T11:20:34;22.50;99.90
9730;DHT22;4904;49.152;11.004;2023-06-04T11:23:02;22.50;99.90
9730;DHT22;4904;49.152;11.004;2023-06-04T11:25:30;22.70;99.90
9730;DHT22;4904;49.152;11.004;2023-06-04T11:28:00;22.70;99.90
9730;DHT22;4904;49.152;11.004;2023-06-04T11:30:28;22.80;99.90
9730;DHT22;4904;49.152;11.004;2023-06-04T11:33:02;22.90;99.90
9730;DHT22;4904;49.152;11.004;2023-06-04T11:35:31;23.00;99.90
9730;DHT22;4904;49.152;11.004;2023-06-04T11:37:59;23.10;99.90
9730;DHT22;4904;49.152;11.004;2023-06-04T11:40:26;23.20;99.90
9730;DHT22;4904;49.152;11.004;2023-06-04T11:42:53;23.30;99.90
9730;DHT22;4904;49.152;11.004;2023-06-04T11:45:24;23.40;99.90
9730;DHT22;4904;49.152;11.004;2023-06-04T11:47:57;23.30;99.90
9730;DHT22;4904;49.152;11.004;2023-06-04T11:50:27;23.10;99.00
9730;DHT22;4904;49.152;11.004;2023-06-04T11:52:55;23.10;99.90
9730;DHT22;4904;49.152;11.004;2023-06-04T11:55:23;23.10;99.90
9730;DHT22;4904;49.152;11.004;2023-06-04T11:57:51;23.20;99.90
9730;DHT22;4904;49.152;11.004;2023-06-04T12:00:19;23.30;98.30
9730;DHT22;4904;49.152;11.004;2023-06-04T12:02:53;23.40;99.30
9730;DHT22;4904;49.152;11.004;2023-06-04T12:05:21;23.40;99.90
9730;DHT22;4904;49.152;11.004;2023-06-04T12:07:50;23.50;99.90
9730;DHT22;4904;49.152;11.004;2023-06-04T12:10:17;23.70;99.90
9730;DHT22;4904;49.152;11.004;2023-06-04T12:12:44;23.80;99.20
9730;DHT22;4904;49.152;11.004;2023-06-04T12:15:12;23.80;96.70
9730;DHT22;4904;49.152;11.004;2023-06-04T12:17:49;23.70;96.90
9730;DHT22;4904;49.152;11.004;2023-06-04T12:20:18;23.80;98.90
9730;DHT22;4904;49.152;11.004;2023-06-04T12:22:46;23.90;98.60
9730;DHT22;4904;49.152;11.004;2023-06-04T12:25:24;24.00;95.90
9730;DHT22;4904;49.152;11.004;2023-06-04T12:27:52;24.10;95.80
9730;DHT22;4904;49.152;11.004;2023-06-04T12:30:20;24.00;96.70
9730;DHT22;4904;49.152;11.004;2023-06-04T12:32:48;24.10;99.30
9730;DHT22;4904;49.152;11.004;2023-06-04T12:35:19;24.30;97.60
9730;DHT22;4904;49.152;11.004;2023-06-04T12:37:46;24.40;96.70
9730;DHT22;4904;49.152;11.004;2023-06-04T12:40:13;24.50;97.70
9730;DHT22;4904;49.152;11.004;2023-06-04T12:42:40;24.60;97.50
9730;DHT22;4904;49.152;11.004;2023-06-04T12:45:09;24.60;96.10
9730;DHT22;4904;49.152;11.004;2023-06-04T12:47:40;24.70;98.90
9730;DHT22;4904;49.152;11.004;2023-06-04T12:50:08;24.80;96.50
9730;DHT22;4904;49.152;11.004;2023-06-04T12:52:37;24.60;96.30
9730;DHT22;4904;49.152;11.004;2023-06-04T12:55:05;24.70;98.40
9730;DHT22;4904;49.152;11.004;2023-06-04T12:57:32;24.90;99.80
9730;DHT22;4904;49.152;11.004;2023-06-04T12:59:59;25.00;95.80
9730;DHT22;4904;49.152;11.004;2023-06-04T13:02:26;25.10;97.40
9730;DHT22;4904;49.152;11.004;2023-06-04T13:04:53;25.10;95.90
9730;DHT22;4904;49.152;11.004;2023-06-04T13:07:21;25.10;95.70
9730;DHT22;4904;49.152;11.004;2023-06-04T13:09:49;25.10;96.90
9730;DHT22;4904;49.152;11.004;2023-06-04T13:12:17;25.20;97.00
9730;DHT22;4904;49.152;11.004;2023-06-04T13:14:44;25.40;97.40
9730;DHT22;4904;49.152;11.004;2023-06-04T13:17:11;25.60;97.70
9730;DHT22;4904;49.152;11.004;2023-06-04T13:19:39;25.70;97.50
9730;DHT22;4904;49.152;11.004;2023-06-04T13:22:05;25.80;96.30
9730;DHT22;4904;49.152;11.004;2023-06-04T13:24:34;25.90;96.80
9730;DHT22;4904;49.152;11.004;2023-06-04T13:27:03;26.10;96.10
9730;DHT22;4904;49.152;11.004;2023-06-04T13:29:30;26.00;94.90
9730;DHT22;4904;49.152;11.004;2023-06-04T13:31:59;26.00;94.20
9730;DHT22;4904;49.152;11.004;2023-06-04T13:34:26;26.00;94.80
9730;DHT22;4904;49.152;11.004;2023-06-04T13:36:54;26.00;94.10
9730;DHT22;4904;49.152;11.004;2023-06-04T13:39:22;26.10;93.60
9730;DHT22;4904;49.152;11.004;2023-06-04T13:41:48;26.20;95.00
9730;DHT22;4904;49.152;11.004;2023-06-04T13:44:17;26.30;93.40
9730;DHT22;4904;49.152;11.004;2023-06-04T13:46:44;26.40;94.60
9730;DHT22;4904;49.152;11.004;2023-06-04T13:49:11;26.60;95.00
9730;DHT22;4904;49.152;11.004;2023-06-04T13:51:39;26.70;94.40
9730;DHT22;4904;49.152;11.004;2023-06-04T13:54:06;26.90;94.40
9730;DHT22;4904;49.152;11.004;2023-06-04T13:56:33;27.00;93.90
9730;DHT22;4904;49.152;11.004;2023-06-04T13:59:00;27.00;93.60
9730;DHT22;4904;49.152;11.004;2023-06-04T14:01:29;27.00;93.70
9730;DHT22;4904;49.152;11.004;2023-06-04T14:03:56;27.00;93.60
9730;DHT22;4904;49.152;11.004;2023-06-04T14:06:24;27.10;93.00
9730;DHT22;4904;49.152;11.004;2023-06-04T14:08:51;27.00;92.20
9730;DHT22;4904;49.152;11.004;2023-06-04T14:11:18;26.90;92.40
9730;DHT22;4904;49.152;11.004;2023-06-04T14:13:46;26.90;92.40
9730;DHT22;4904;49.152;11.004;2023-06-04T14:16:13;27.00;92.10
9730;DHT22;4904;49.152;11.004;2023-06-04T14:18:42;27.10;92.30
9730;DHT22;4904;49.152;11.004;2023-06-04T14:21:09;27.20;92.70
9730;DHT22;4904;49.152;11.004;2023-06-04T14:23:36;27.40;92.30
9730;DHT22;4904;49.152;11.004;2023-06-04T14:26:03;27.50;92.40
9730;DHT22;4904;49.152;11.004;2023-06-04T14:28:30;27.60;91.10
9730;DHT22;4904;49.152;11.004;2023-06-04T14:30:57;27.70;90.90
9730;DHT22;4904;49.152;11.004;2023-06-04T14:33:24;27.80;90.00
9730;DHT22;4904;49.152;11.004;2023-06-04T14:35:52;27.90;90.50
9730;DHT22;4904;49.152;11.004;2023-06-04T14:38:20;27.90;90.00
9730;DHT22;4904;49.152;11.004;2023-06-04T14:40:47;28.00;88.30
9730;DHT22;4904;49.152;11.004;2023-06-04T14:43:13;28.10;86.90
9730;DHT22;4904;49.152;11.004;2023-06-04T14:45:42;28.20;89.40
9730;DHT22;4904;49.152;11.004;2023-06-04T14:48:09;28.40;87.80
9730;DHT22;4904;49.152;11.004;2023-06-04T14:50:36;28.40;84.60
9730;DHT22;4904;49.152;11.004;2023-06-04T14:53:04;28.40;84.60
9730;DHT22;4904;49.152;11.004;2023-06-04T14:55:33;28.40;87.60
9730;DHT22;4904;49.152;11.004;2023-06-04T14:58:00;28.50;87.00
9730;DHT22;4904;49.152;11.004;2023-06-04T15:00:28;28.60;85.20
9730;DHT22;4904;49.152;11.004;2023-06-04T15:02:55;28.80;82.90
9730;DHT22;4904;49.152;11.004;2023-06-04T15:05:23;28.80;82.20
9730;DHT22;4904;49.152;11.004;2023-06-04T15:07:51;28.70;84.00
9730;DHT22;4904;49.152;11.004;2023-06-04T15:10:24;28.80;83.60
9730;DHT22;4904;49.152;11.004;2023-06-04T15:12:52;29.10;82.60
9730;DHT22;4904;49.152;11.004;2023-06-04T15:15:19;29.60;82.90
9730;DHT22;4904;49.152;11.004;2023-06-04T15:17:47;30.20;83.00
9730;DHT22;4904;49.152;11.004;2023-06-04T15:20:14;30.70;80.80
9730;DHT22;4904;49.152;11.004;2023-06-04T15:22:41;31.10;77.10
9730;DHT22;4904;49.152;11.004;2023-06-04T15:25:11;31.40;78.30
9730;DHT22;4904;49.152;11.004;2023-06-04T15:27:41;32.00;77.10
9730;DHT22;4904;49.152;11.004;2023-06-04T15:30:09;32.50;79.90
9730;DHT22;4904;49.152;11.004;2023-06-04T15:32:36;33.10;78.90
9730;DHT22;4904;49.152;11.004;2023-06-04T15:35:04;33.80;77.00
9730;DHT22;4904;49.152;11.004;2023-06-04T15:37:31;34.70;72.80
9730;DHT22;4904;49.152;11.004;2023-06-04T15:39:59;35.30;71.80
9730;DHT22;4904;49.152;11.004;2023-06-04T15:42:26;35.90;71.20
9730;DHT22;4904;49.152;11.004;2023-06-04T15:44:58;36.70;68.20
9730;DHT22;4904;49.152;11.004;2023-06-04T15:47:25;37.40;67.10
9730;DHT22;4904;49.152;11.004;2023-06-04T15:49:51;38.20;66.30